createdAt,value
2022-08-08T00:00:56.090Z,18.07
2022-08-08T00:03:37.099Z,17.94
2022-08-08T00:07:25.901Z,17.91
2022-08-08T00:10:28.508Z,17.84
2022-08-08T00:14:15.463Z,17.80
2022-08-08T00:17:47.910Z,17.70
2022-08-08T00:20:49.465Z,17.65
2022-08-08T00:23:58.255Z,17.64
2022-08-08T00:26:57.419Z,17.51
2022-08-08T00:29:50.183Z,17.45
2022-08-08T00:32:48.238Z,17.50
2022-08-08T00:35:59.368Z,17.43
2022-08-08T00:41:07.456Z,17.44
2022-08-08T00:42:50.627Z,17.46
2022-08-08T00:46:16.081Z,17.46
2022-08-08T00:49:50.632Z,17.44
2022-08-08T00:53:15.624Z,17.44
2022-08-08T00:56:48.655Z,17.38
2022-08-08T01:00:12.053Z,17.31
2022-08-08T01:03:57.376Z,17.25
2022-08-08T01:07:01.416Z,17.18
2022-08-08T01:10:38.721Z,17.17
2022-08-08T01:13:58.058Z,17.06
2022-08-08T01:17:20.115Z,17.12
2022-08-08T01:20:35.802Z,17.01
2022-08-08T01:24:03.084Z,17.03
2022-08-08T01:27:32.652Z,16.98
2022-08-08T01:31:25.799Z,16.92
2022-08-08T01:34:41.399Z,16.94
2022-08-08T01:38:01.042Z,16.97
2022-08-08T01:41:26.890Z,16.95
2022-08-08T01:45:02.948Z,16.92
2022-08-08T01:48:16.104Z,16.94
2022-08-08T01:52:51.329Z,16.97
2022-08-08T01:56:29.381Z,16.99
2022-08-08T01:59:49.280Z,17.05
2022-08-08T02:03:07.271Z,17.05
2022-08-08T02:06:05.485Z,17.01
2022-08-08T02:09:17.927Z,17.05
2022-08-08T02:12:28.603Z,17.01
2022-08-08T02:15:22.403Z,17.03
2022-08-08T02:18:34.629Z,16.94
2022-08-08T02:22:00.101Z,16.95
2022-08-08T02:25:16.539Z,16.90
2022-08-08T02:28:19.981Z,16.78
2022-08-08T02:31:57.916Z,16.73
2022-08-08T02:35:11.257Z,16.68
2022-08-08T02:38:50.610Z,16.57
2022-08-08T02:42:03.806Z,16.54
2022-08-08T02:45:32.020Z,16.49
2022-08-08T02:49:48.185Z,16.20
2022-08-08T02:52:40.227Z,16.36
2022-08-08T02:55:57.843Z,16.33
2022-08-08T02:59:26.106Z,16.04
2022-08-08T03:02:50.839Z,15.86
2022-08-08T03:06:39.167Z,15.78
2022-08-08T03:10:08.946Z,15.77
2022-08-08T03:16:00.167Z,15.77
2022-08-08T03:16:50.547Z,15.77
2022-08-08T03:20:08.213Z,15.78
2022-08-08T03:23:00.604Z,15.69
2022-08-08T03:25:52.587Z,15.63
2022-08-08T03:28:56.553Z,15.41
2022-08-08T03:32:06.563Z,15.52
2022-08-08T03:34:57.009Z,15.60
2022-08-08T03:38:53.177Z,15.61
2022-08-08T03:40:55.824Z,15.52
2022-08-08T03:43:59.652Z,15.35
2022-08-08T03:46:50.046Z,15.50
2022-08-08T03:49:59.940Z,15.38
2022-08-08T03:52:47.527Z,15.40
2022-08-08T03:55:56.082Z,15.43
2022-08-08T03:58:50.770Z,15.37
2022-08-08T04:02:15.728Z,15.37
2022-08-08T04:04:48.375Z,15.25
2022-08-08T04:07:39.900Z,15.24
2022-08-08T04:10:31.945Z,15.17
2022-08-08T04:13:20.883Z,15.07
2022-08-08T04:16:08.808Z,14.87
2022-08-08T04:18:56.638Z,15.03
2022-08-08T04:21:46.042Z,15.07
2022-08-08T04:24:33.824Z,15.04
2022-08-08T04:28:03.382Z,15.03
2022-08-08T04:30:36.594Z,15.00
2022-08-08T04:33:38.560Z,15.01
2022-08-08T04:36:29.869Z,15.05
2022-08-08T04:40:03.881Z,15.07
2022-08-08T04:42:27.273Z,15.10
2022-08-08T04:45:15.873Z,15.20
2022-08-08T04:48:04.119Z,15.09
2022-08-08T04:50:52.053Z,15.40
2022-08-08T04:54:27.391Z,15.42
2022-08-08T04:56:47.861Z,15.58
2022-08-08T04:59:41.714Z,15.58
2022-08-08T05:02:31.337Z,15.77
2022-08-08T05:05:20.342Z,15.82
2022-08-08T05:08:27.278Z,15.93
2022-08-08T05:11:23.202Z,16.11
2022-08-08T05:14:14.111Z,16.51
2022-08-08T05:17:08.617Z,16.76
2022-08-08T05:20:10.148Z,17.10
2022-08-08T05:23:02.341Z,17.44
2022-08-08T05:25:51.877Z,17.79
2022-08-08T05:28:56.639Z,18.11
2022-08-08T05:32:03.022Z,18.37
2022-08-08T05:34:54.100Z,18.57
2022-08-08T05:37:53.970Z,18.88
2022-08-08T05:40:57.209Z,18.88
2022-08-08T05:44:03.925Z,19.09
2022-08-08T05:46:54.035Z,19.42
2022-08-08T05:49:53.986Z,19.55
2022-08-08T05:52:44.023Z,19.75
2022-08-08T05:56:08.319Z,19.78
2022-08-08T05:58:54.034Z,20.02
2022-08-08T06:01:57.193Z,20.29
2022-08-08T06:04:54.340Z,20.63
2022-08-08T06:07:43.796Z,20.65
2022-08-08T06:10:35.087Z,20.76
2022-08-08T06:13:35.850Z,20.95
2022-08-08T06:16:36.687Z,20.96
2022-08-08T06:19:27.494Z,21.28
2022-08-08T06:26:36.092Z,21.67
2022-08-08T06:28:39.875Z,21.90
2022-08-08T06:32:08.991Z,22.06
2022-08-08T06:34:56.524Z,22.15
2022-08-08T06:38:14.028Z,22.34
2022-08-08T06:41:15.553Z,22.40
2022-08-08T06:44:04.665Z,22.43
2022-08-08T06:47:01.652Z,22.49
2022-08-08T06:49:56.745Z,22.44
2022-08-08T06:52:50.398Z,22.39
2022-08-08T06:55:41.731Z,22.83
2022-08-08T06:58:33.330Z,23.19
2022-08-08T07:02:17.928Z,23.12
2022-08-08T07:05:05.370Z,23.31
2022-08-08T07:07:53.082Z,23.62
2022-08-08T07:10:51.249Z,23.59
2022-08-08T07:14:01.066Z,23.77
2022-08-08T07:17:19.818Z,23.76
2022-08-08T07:20:11.171Z,23.64
2022-08-08T07:23:23.506Z,23.79
2022-08-08T07:26:13.217Z,23.68
2022-08-08T07:29:08.347Z,23.99
2022-08-08T07:31:59.423Z,24.06
2022-08-08T07:35:00.170Z,23.95
2022-08-08T07:38:04.274Z,24.07
2022-08-08T07:41:04.161Z,24.23
2022-08-08T07:43:56.143Z,24.33
2022-08-08T07:46:48.276Z,24.60
2022-08-08T07:49:42.463Z,24.94
2022-08-08T07:52:34.094Z,25.18
2022-08-08T07:55:30.346Z,25.24
2022-08-08T07:58:33.992Z,25.30
2022-08-08T08:01:27.126Z,25.58
2022-08-08T08:04:16.635Z,25.93
2022-08-08T08:07:05.028Z,26.41
2022-08-08T08:09:54.471Z,26.13
2022-08-08T08:12:56.288Z,26.06
2022-08-08T08:15:44.162Z,26.09
2022-08-08T08:19:01.663Z,26.14
2022-08-08T08:21:57.395Z,26.36
2022-08-08T08:24:52.134Z,26.80
2022-08-08T08:27:47.039Z,26.90
2022-08-08T08:30:35.437Z,26.89
2022-08-08T08:33:23.224Z,26.82
2022-08-08T08:36:19.797Z,27.09
2022-08-08T08:39:17.423Z,27.27
2022-08-08T08:42:12.202Z,27.88
2022-08-08T08:45:10.275Z,27.90
2022-08-08T08:48:10.466Z,28.95
2022-08-08T08:51:14.383Z,29.55
2022-08-08T08:54:03.483Z,30.36
2022-08-08T08:56:52.138Z,30.89
2022-08-08T09:00:01.729Z,30.92
2022-08-08T09:02:52.516Z,31.77
2022-08-08T09:05:53.835Z,31.85
2022-08-08T09:08:49.803Z,32.22
2022-08-08T09:11:47.383Z,32.46
2022-08-08T09:14:54.859Z,31.52
2022-08-08T09:17:55.284Z,30.85
2022-08-08T09:21:56.001Z,31.77
2022-08-08T09:23:55.505Z,32.65
2022-08-08T09:26:55.434Z,32.64
2022-08-08T09:29:55.594Z,32.14
2022-08-08T09:33:12.614Z,32.82
2022-08-08T09:36:04.475Z,33.22
2022-08-08T09:39:10.310Z,34.42
2022-08-08T09:42:21.138Z,34.80
2022-08-08T09:45:55.012Z,34.28
2022-08-08T09:48:53.233Z,34.87
2022-08-08T09:52:07.580Z,33.69
2022-08-08T09:54:57.064Z,33.67
2022-08-08T09:58:00.783Z,32.95
2022-08-08T10:00:57.249Z,32.63
2022-08-08T10:03:55.981Z,33.11
2022-08-08T10:06:52.851Z,34.36
2022-08-08T10:10:00.347Z,34.38
2022-08-08T10:12:54.147Z,33.85
2022-08-08T10:16:00.437Z,33.29
2022-08-08T10:18:55.398Z,34.64
2022-08-08T10:21:53.274Z,35.36
2022-08-08T10:24:47.351Z,34.42
2022-08-08T10:27:49.788Z,33.82
2022-08-08T10:31:00.867Z,33.97
2022-08-08T10:34:18.049Z,34.17
2022-08-08T10:37:05.586Z,34.58
2022-08-08T10:39:56.127Z,35.02
2022-08-08T10:42:48.128Z,33.99
2022-08-08T10:45:55.719Z,31.15
2022-08-08T10:48:56.038Z,30.52
2022-08-08T10:51:51.090Z,30.11
2022-08-08T10:54:41.401Z,29.70
2022-08-08T10:57:49.939Z,29.34
2022-08-08T11:00:53.619Z,28.68
2022-08-08T11:04:00.868Z,28.39
2022-08-08T11:07:00.551Z,27.84
2022-08-08T11:09:48.368Z,27.78
2022-08-08T11:13:18.659Z,27.69
2022-08-08T11:16:11.446Z,27.65
2022-08-08T11:19:12.170Z,27.52
2022-08-08T11:22:04.432Z,27.26
2022-08-08T11:25:14.168Z,27.23
2022-08-08T11:28:05.616Z,27.03
2022-08-08T11:31:00.167Z,27.02
2022-08-08T11:34:01.950Z,26.82
2022-08-08T11:36:51.596Z,26.88
2022-08-08T11:39:57.291Z,27.03
2022-08-08T11:42:45.468Z,27.13
2022-08-08T11:45:59.917Z,27.16
2022-08-08T11:48:44.989Z,27.10
2022-08-08T11:51:40.015Z,27.13
2022-08-08T11:54:46.401Z,27.16
2022-08-08T11:57:35.312Z,27.27
2022-08-08T12:00:28.923Z,27.19
2022-08-08T12:03:30.590Z,27.21
2022-08-08T12:06:22.084Z,27.13
2022-08-08T12:09:17.389Z,27.26
2022-08-08T12:12:07.121Z,27.10
2022-08-08T12:15:05.526Z,27.09
2022-08-08T12:17:57.343Z,27.10
2022-08-08T12:20:53.024Z,27.09
2022-08-08T12:23:51.843Z,27.14
2022-08-08T12:26:54.133Z,27.26
2022-08-08T12:29:59.967Z,27.24
2022-08-08T12:32:50.531Z,27.20
2022-08-08T12:35:41.394Z,27.15
2022-08-08T12:38:55.352Z,27.14
2022-08-08T12:41:57.135Z,27.10
2022-08-08T12:44:48.354Z,27.18
2022-08-08T12:48:04.527Z,27.11
2022-08-08T12:50:58.490Z,26.95
2022-08-08T12:54:01.194Z,26.99
2022-08-08T12:56:53.217Z,27.06
2022-08-08T13:00:04.586Z,27.08
2022-08-08T13:02:58.347Z,27.09
2022-08-08T13:06:03.868Z,27.16
2022-08-08T13:08:56.116Z,27.20
2022-08-08T13:12:24.814Z,27.29
2022-08-08T13:15:10.620Z,27.41
2022-08-08T13:18:11.163Z,27.32
2022-08-08T13:21:01.301Z,27.34
2022-08-08T13:23:49.931Z,27.45
2022-08-08T13:26:40.142Z,27.33
2022-08-08T13:29:40.679Z,27.38
2022-08-08T13:32:36.811Z,27.42
2022-08-08T13:35:29.785Z,27.26
2022-08-08T13:38:28.322Z,27.19
2022-08-08T13:41:17.359Z,27.36
2022-08-08T13:44:10.869Z,27.49
2022-08-08T13:47:02.081Z,27.33
2022-08-08T13:50:35.329Z,27.48
2022-08-08T13:53:22.995Z,27.62
2022-08-08T13:56:12.630Z,27.75
2022-08-08T13:59:00.395Z,27.79
2022-08-08T14:01:57.999Z,27.75
2022-08-08T14:05:21.755Z,27.66
2022-08-08T14:08:16.765Z,27.58
2022-08-08T14:11:28.266Z,27.53
2022-08-08T14:14:20.949Z,27.50
2022-08-08T14:17:22.468Z,27.47
2022-08-08T14:20:56.170Z,27.58
2022-08-08T14:24:06.392Z,27.43
2022-08-08T14:26:55.359Z,27.52
2022-08-08T14:29:58.370Z,27.44
2022-08-08T14:32:53.308Z,27.57
2022-08-08T14:35:41.685Z,27.65
2022-08-08T14:38:51.999Z,27.72
2022-08-08T14:41:53.980Z,27.72
2022-08-08T14:44:55.857Z,27.66
2022-08-08T14:47:52.941Z,27.70
2022-08-08T14:50:40.733Z,27.68
2022-08-08T14:53:37.340Z,27.79
2022-08-08T14:56:42.786Z,27.71
2022-08-08T14:59:44.359Z,27.65
2022-08-08T15:02:58.658Z,27.58
2022-08-08T15:05:54.165Z,27.87
2022-08-08T15:08:54.661Z,27.94
2022-08-08T15:11:46.587Z,27.97
2022-08-08T15:14:41.158Z,28.00
2022-08-08T15:17:29.335Z,28.02
2022-08-08T15:20:18.679Z,28.02
2022-08-08T15:23:06.762Z,27.99
2022-08-08T15:25:55.026Z,27.99
2022-08-08T15:28:43.654Z,27.89
2022-08-08T15:32:02.844Z,27.91
2022-08-08T15:34:45.468Z,27.94
2022-08-08T15:37:33.266Z,28.13
2022-08-08T15:40:28.128Z,28.18
2022-08-08T15:43:35.614Z,27.85
2022-08-08T15:46:27.254Z,28.05
2022-08-08T15:49:27.650Z,27.92
2022-08-08T15:52:22.004Z,27.84
2022-08-08T15:55:10.597Z,27.91
2022-08-08T15:57:58.347Z,27.88
2022-08-08T16:00:50.496Z,27.88
2022-08-08T16:03:38.594Z,27.85
2022-08-08T16:06:28.749Z,27.92
2022-08-08T16:13:14.106Z,27.86
2022-08-08T16:13:15.435Z,27.95
2022-08-08T16:15:34.730Z,27.86
2022-08-08T16:18:43.068Z,27.99
2022-08-08T16:21:33.297Z,27.94
2022-08-08T16:24:22.835Z,27.88
2022-08-08T16:27:17.902Z,27.93
2022-08-08T16:30:14.630Z,28.03
2022-08-08T16:33:04.359Z,27.87
2022-08-08T16:35:53.598Z,27.93
2022-08-08T16:38:46.462Z,27.99
2022-08-08T16:41:35.430Z,27.99
2022-08-08T16:44:27.853Z,28.02
2022-08-08T16:47:40.189Z,28.01
2022-08-08T16:50:30.031Z,27.89
2022-08-08T16:55:03.981Z,27.92
2022-08-08T16:56:26.734Z,27.82
2022-08-08T16:59:14.749Z,27.83
2022-08-08T17:02:09.679Z,27.70
2022-08-08T17:05:14.155Z,27.80
2022-08-08T17:08:02.116Z,27.78
2022-08-08T17:10:58.267Z,27.78
2022-08-08T17:14:01.393Z,27.70
2022-08-08T17:16:57.852Z,27.70
2022-08-08T17:19:46.666Z,27.64
2022-08-08T17:22:42.054Z,27.58
2022-08-08T17:25:47.645Z,27.60
2022-08-08T17:28:38.200Z,27.48
2022-08-08T17:31:44.643Z,27.56
2022-08-08T17:34:37.602Z,27.52
2022-08-08T17:37:42.656Z,27.37
2022-08-08T17:40:39.861Z,27.45
2022-08-08T17:43:28.681Z,27.41
2022-08-08T17:46:39.822Z,27.38
2022-08-08T17:49:42.585Z,27.34
2022-08-08T17:52:34.294Z,27.26
2022-08-08T17:56:06.634Z,27.18
2022-08-08T17:58:31.722Z,27.16
2022-08-08T18:01:29.806Z,27.09
2022-08-08T18:04:28.959Z,27.02
2022-08-08T18:08:02.689Z,26.89
2022-08-08T18:10:31.436Z,26.92
2022-08-08T18:13:19.731Z,26.88
2022-08-08T18:16:07.636Z,26.76
2022-08-08T18:18:57.586Z,26.65
2022-08-08T18:22:01.748Z,26.55
2022-08-08T18:24:51.045Z,26.45
2022-08-08T18:27:38.840Z,26.34
2022-08-08T18:30:31.924Z,26.28
2022-08-08T18:33:36.377Z,26.16
2022-08-08T18:36:27.476Z,26.06
2022-08-08T18:39:28.613Z,26.03
2022-08-08T18:42:18.421Z,25.90
2022-08-08T18:45:45.000Z,25.74
2022-08-08T18:48:18.101Z,25.64
2022-08-08T18:51:21.724Z,25.49
2022-08-08T18:54:22.702Z,25.37
2022-08-08T18:57:15.354Z,25.25
2022-08-08T19:00:07.537Z,25.14
2022-08-08T19:03:03.889Z,25.03
2022-08-08T19:05:52.029Z,25.04
2022-08-08T19:08:40.564Z,24.83
2022-08-08T19:11:32.846Z,24.72
2022-08-08T19:14:23.195Z,24.57
2022-08-08T19:17:11.142Z,24.41
2022-08-08T19:20:02.789Z,24.34
2022-08-08T19:22:51.100Z,24.29
2022-08-08T19:26:20.146Z,24.23
2022-08-08T19:28:47.916Z,24.10
2022-08-08T19:31:37.574Z,23.94
2022-08-08T19:34:36.123Z,23.86
2022-08-08T19:37:43.668Z,23.73
2022-08-08T19:40:34.186Z,23.64
2022-08-08T19:43:28.245Z,23.63
2022-08-08T19:46:22.271Z,23.61
2022-08-08T19:49:10.472Z,23.53
2022-08-08T19:51:58.243Z,23.41
2022-08-08T19:54:46.391Z,23.50
2022-08-08T19:57:36.137Z,23.44
2022-08-08T20:00:29.946Z,23.44
2022-08-08T20:04:01.492Z,23.33
2022-08-08T20:06:27.290Z,23.19
2022-08-08T20:09:17.288Z,23.33
2022-08-08T20:12:10.896Z,23.29
2022-08-08T20:15:14.589Z,23.20
2022-08-08T20:18:15.511Z,23.28
2022-08-08T20:21:04.098Z,23.20
2022-08-08T20:23:52.548Z,23.22
2022-08-08T20:26:47.070Z,23.18
2022-08-08T20:29:55.860Z,23.21
2022-08-08T20:32:46.108Z,23.17
2022-08-08T20:35:59.505Z,23.19
2022-08-08T20:38:44.179Z,23.13
2022-08-08T20:41:31.959Z,23.12
2022-08-08T20:44:21.686Z,23.07
2022-08-08T20:47:15.884Z,23.04
2022-08-08T20:50:12.181Z,23.00
2022-08-08T20:53:03.881Z,23.00
2022-08-08T20:55:54.695Z,22.93
2022-08-08T20:58:48.004Z,22.90
2022-08-08T21:02:05.569Z,22.89
2022-08-08T21:04:43.940Z,22.80
2022-08-08T21:08:33.971Z,22.77
2022-08-08T21:10:45.522Z,22.64
2022-08-08T21:13:40.924Z,22.64
2022-08-08T21:16:29.294Z,22.57
2022-08-08T21:19:17.089Z,22.57
2022-08-08T21:22:05.407Z,22.54
2022-08-08T21:24:54.802Z,22.39
2022-08-08T21:28:09.174Z,22.43
2022-08-08T21:30:52.350Z,22.41
2022-08-08T21:33:40.451Z,22.32
2022-08-08T21:36:29.407Z,22.28
2022-08-08T21:39:18.634Z,22.24
2022-08-08T21:42:09.643Z,22.13
2022-08-08T21:45:01.272Z,22.21
2022-08-08T21:48:12.916Z,22.14
2022-08-08T21:51:11.143Z,22.12
2022-08-08T21:54:31.286Z,22.03
2022-08-08T21:57:10.644Z,21.98
2022-08-08T22:00:02.563Z,21.87
2022-08-08T22:02:52.486Z,21.84
2022-08-08T22:05:41.435Z,21.84
2022-08-08T22:08:37.303Z,21.80
2022-08-08T22:11:51.256Z,21.80
2022-08-08T22:14:38.375Z,21.68
2022-08-08T22:17:30.964Z,21.55
2022-08-08T22:20:29.407Z,21.58
2022-08-08T22:23:17.478Z,21.54
2022-08-08T22:26:27.791Z,21.60
2022-08-08T22:29:59.056Z,21.50
2022-08-08T22:32:21.109Z,21.44
2022-08-08T22:35:08.999Z,21.43
2022-08-08T22:37:59.571Z,21.27
2022-08-08T22:40:49.618Z,21.31
2022-08-08T22:43:39.429Z,21.26
2022-08-08T22:46:45.911Z,21.22
2022-08-08T22:49:33.771Z,21.14
2022-08-08T22:52:33.697Z,21.12
2022-08-08T22:55:23.507Z,21.15
2022-08-08T22:58:11.341Z,21.06
2022-08-08T23:01:00.640Z,21.12
2022-08-08T23:03:54.677Z,21.09
2022-08-08T23:06:43.188Z,21.01
2022-08-08T23:09:39.206Z,21.02
2022-08-08T23:12:41.409Z,21.04
2022-08-08T23:16:38.537Z,21.02
2022-08-08T23:18:37.173Z,20.92
2022-08-08T23:21:26.967Z,20.78
2022-08-08T23:24:22.574Z,20.69
2022-08-08T23:27:17.245Z,20.58
2022-08-08T23:30:23.800Z,20.43
2022-08-08T23:33:13.655Z,20.45
2022-08-08T23:36:09.286Z,20.43
2022-08-08T23:38:57.867Z,20.47
2022-08-08T23:41:49.357Z,20.49
2022-08-08T23:44:38.556Z,20.47
2022-08-08T23:49:03.467Z,20.39
2022-08-08T23:50:35.010Z,20.33
2022-08-08T23:53:56.006Z,20.29
2022-08-08T23:56:32.261Z,20.27
2022-08-08T23:59:21.817Z,20.16
